sensor_id;sensor_type;location;lat;lon;timestamp;P1;durP1;ratioP1;P2;durP2;ratioP2
57828;SDS011;43657;52.698;6.314;2023-06-10T00:01:24;9.35;;;6.22;;
57828;SDS011;43657;52.698;6.314;2023-06-10T00:03:50;8.43;;;5.80;;
57828;SDS011;43657;52.698;6.314;2023-06-10T00:06:19;8.02;;;5.40;;
57828;SDS011;43657;52.698;6.314;2023-06-10T00:08:46;7.00;;;5.88;;
57828;SDS011;43657;52.698;6.314;2023-06-10T00:11:12;9.93;;;5.53;;
57828;SDS011;43657;52.698;6.314;2023-06-10T00:13:38;8.85;;;6.55;;
57828;SDS011;43657;52.698;6.314;2023-06-10T00:16:05;9.15;;;5.72;;
57828;SDS011;43657;52.698;6.314;2023-06-10T00:18:30;7.88;;;5.70;;
57828;SDS011;43657;52.698;6.314;2023-06-10T00:20:56;9.82;;;5.70;;
57828;SDS011;43657;52.698;6.314;2023-06-10T00:23:28;8.57;;;5.95;;
57828;SDS011;43657;52.698;6.314;2023-06-10T00:25:55;7.90;;;5.65;;
57828;SDS011;43657;52.698;6.314;2023-06-10T00:28:24;8.10;;;5.65;;
57828;SDS011;43657;52.698;6.314;2023-06-10T00:30:50;7.93;;;5.22;;
57828;SDS011;43657;52.698;6.314;2023-06-10T00:33:16;8.30;;;5.47;;
57828;SDS011;43657;52.698;6.314;2023-06-10T00:35:41;9.25;;;5.53;;
57828;SDS011;43657;52.698;6.314;2023-06-10T00:38:07;7.00;;;5.38;;
57828;SDS011;43657;52.698;6.314;2023-06-10T00:40:33;7.40;;;5.60;;
57828;SDS011;43657;52.698;6.314;2023-06-10T00:43:04;9.82;;;6.30;;
57828;SDS011;43657;52.698;6.314;2023-06-10T00:45:30;7.72;;;5.75;;
57828;SDS011;43657;52.698;6.314;2023-06-10T00:47:56;8.05;;;6.22;;
57828;SDS011;43657;52.698;6.314;2023-06-10T00:50:21;8.18;;;6.00;;
57828;SDS011;43657;52.698;6.314;2023-06-10T00:52:47;7.43;;;5.90;;
57828;SDS011;43657;52.698;6.314;2023-06-10T00:55:13;8.77;;;6.57;;
57828;SDS011;43657;52.698;6.314;2023-06-10T00:57:41;7.93;;;6.10;;
57828;SDS011;43657;52.698;6.314;2023-06-10T01:00:09;9.27;;;6.43;;
57828;SDS011;43657;52.698;6.314;2023-06-10T01:02:36;8.52;;;6.47;;
57828;SDS011;43657;52.698;6.314;2023-06-10T01:05:01;9.02;;;6.55;;
57828;SDS011;43657;52.698;6.314;2023-06-10T01:07:34;8.20;;;6.45;;
57828;SDS011;43657;52.698;6.314;2023-06-10T01:10:11;9.43;;;6.45;;
57828;SDS011;43657;52.698;6.314;2023-06-10T01:12:55;8.70;;;6.40;;
57828;SDS011;43657;52.698;6.314;2023-06-10T01:15:27;9.43;;;6.30;;
57828;SDS011;43657;52.698;6.314;2023-06-10T01:20:26;10.95;;;7.10;;
57828;SDS011;43657;52.698;6.314;2023-06-10T01:22:56;8.70;;;6.68;;
57828;SDS011;43657;52.698;6.314;2023-06-10T01:25:26;8.95;;;6.50;;
57828;SDS011;43657;52.698;6.314;2023-06-10T01:28:01;9.63;;;6.90;;
57828;SDS011;43657;52.698;6.314;2023-06-10T01:30:29;9.27;;;6.60;;
57828;SDS011;43657;52.698;6.314;2023-06-10T01:33:02;8.77;;;6.38;;
57828;SDS011;43657;52.698;6.314;2023-06-10T01:35:30;9.45;;;6.85;;
57828;SDS011;43657;52.698;6.314;2023-06-10T01:37:56;9.02;;;7.07;;
57828;SDS011;43657;52.698;6.314;2023-06-10T01:40:24;8.85;;;6.90;;
57828;SDS011;43657;52.698;6.314;2023-06-10T01:42:51;10.27;;;7.18;;
57828;SDS011;43657;52.698;6.314;2023-06-10T01:45:17;9.18;;;6.95;;
57828;SDS011;43657;52.698;6.314;2023-06-10T01:47:43;10.32;;;7.07;;
57828;SDS011;43657;52.698;6.314;2023-06-10T01:50:08;8.57;;;6.93;;
57828;SDS011;43657;52.698;6.314;2023-06-10T01:52:34;8.30;;;7.00;;
57828;SDS011;43657;52.698;6.314;2023-06-10T01:55:00;10.18;;;7.10;;
57828;SDS011;43657;52.698;6.314;2023-06-10T01:57:25;9.98;;;6.57;;
57828;SDS011;43657;52.698;6.314;2023-06-10T01:59:51;8.95;;;7.30;;
57828;SDS011;43657;52.698;6.314;2023-06-10T02:02:17;9.32;;;7.45;;
57828;SDS011;43657;52.698;6.314;2023-06-10T02:04:42;8.80;;;7.15;;
57828;SDS011;43657;52.698;6.314;2023-06-10T02:07:08;9.77;;;7.20;;
57828;SDS011;43657;52.698;6.314;2023-06-10T02:09:33;9.43;;;6.95;;
57828;SDS011;43657;52.698;6.314;2023-06-10T02:12:01;8.27;;;7.32;;
57828;SDS011;43657;52.698;6.314;2023-06-10T02:14:28;9.52;;;7.28;;
57828;SDS011;43657;52.698;6.314;2023-06-10T02:16:54;10.50;;;7.60;;
57828;SDS011;43657;52.698;6.314;2023-06-10T02:19:22;9.82;;;7.10;;
57828;SDS011;43657;52.698;6.314;2023-06-10T02:21:48;9.65;;;7.55;;
57828;SDS011;43657;52.698;6.314;2023-06-10T02:24:14;9.88;;;7.40;;
57828;SDS011;43657;52.698;6.314;2023-06-10T02:26:40;9.38;;;7.07;;
57828;SDS011;43657;52.698;6.314;2023-06-10T02:29:05;10.38;;;7.60;;
57828;SDS011;43657;52.698;6.314;2023-06-10T02:31:31;12.35;;;7.95;;
57828;SDS011;43657;52.698;6.314;2023-06-10T02:34:00;8.57;;;7.68;;
57828;SDS011;43657;52.698;6.314;2023-06-10T02:36:26;10.52;;;8.00;;
57828;SDS011;43657;52.698;6.314;2023-06-10T02:38:52;8.88;;;7.45;;
57828;SDS011;43657;52.698;6.314;2023-06-10T02:41:18;11.57;;;8.38;;
57828;SDS011;43657;52.698;6.314;2023-06-10T02:43:44;8.90;;;8.00;;
57828;SDS011;43657;52.698;6.314;2023-06-10T02:46:10;9.93;;;7.97;;
57828;SDS011;43657;52.698;6.314;2023-06-10T02:48:42;9.10;;;8.10;;
57828;SDS011;43657;52.698;6.314;2023-06-10T02:51:11;9.13;;;7.60;;
57828;SDS011;43657;52.698;6.314;2023-06-10T02:53:36;10.35;;;7.43;;
57828;SDS011;43657;52.698;6.314;2023-06-10T02:56:02;10.88;;;8.07;;
57828;SDS011;43657;52.698;6.314;2023-06-10T02:58:28;9.27;;;8.27;;
57828;SDS011;43657;52.698;6.314;2023-06-10T03:00:54;10.07;;;8.25;;
57828;SDS011;43657;52.698;6.314;2023-06-10T03:03:20;11.93;;;8.23;;
57828;SDS011;43657;52.698;6.314;2023-06-10T03:05:47;11.20;;;8.20;;
57828;SDS011;43657;52.698;6.314;2023-06-10T03:08:13;10.60;;;8.43;;
57828;SDS011;43657;52.698;6.314;2023-06-10T03:10:39;11.60;;;7.85;;
57828;SDS011;43657;52.698;6.314;2023-06-10T03:13:05;11.60;;;8.95;;
57828;SDS011;43657;52.698;6.314;2023-06-10T03:15:30;9.88;;;8.45;;
57828;SDS011;43657;52.698;6.314;2023-06-10T03:17:58;10.18;;;8.50;;
57828;SDS011;43657;52.698;6.314;2023-06-10T03:20:25;11.55;;;8.88;;
57828;SDS011;43657;52.698;6.314;2023-06-10T03:22:52;9.73;;;8.15;;
57828;SDS011;43657;52.698;6.314;2023-06-10T03:25:18;10.40;;;8.55;;
57828;SDS011;43657;52.698;6.314;2023-06-10T03:27:45;12.77;;;8.90;;
57828;SDS011;43657;52.698;6.314;2023-06-10T03:30:12;11.13;;;8.98;;
57828;SDS011;43657;52.698;6.314;2023-06-10T03:32:38;10.13;;;8.90;;
57828;SDS011;43657;52.698;6.314;2023-06-10T03:35:06;12.65;;;8.63;;
57828;SDS011;43657;52.698;6.314;2023-06-10T03:37:32;12.60;;;8.88;;
57828;SDS011;43657;52.698;6.314;2023-06-10T03:39:57;9.82;;;8.68;;
57828;SDS011;43657;52.698;6.314;2023-06-10T03:42:23;11.77;;;8.68;;
57828;SDS011;43657;52.698;6.314;2023-06-10T03:44:48;10.48;;;8.48;;
57828;SDS011;43657;52.698;6.314;2023-06-10T03:47:14;10.15;;;9.02;;
57828;SDS011;43657;52.698;6.314;2023-06-10T03:49:39;11.55;;;8.90;;
57828;SDS011;43657;52.698;6.314;2023-06-10T03:52:05;12.55;;;9.07;;
57828;SDS011;43657;52.698;6.314;2023-06-10T03:54:32;9.45;;;8.18;;
57828;SDS011;43657;52.698;6.314;2023-06-10T03:56:59;10.98;;;8.20;;
57828;SDS011;43657;52.698;6.314;2023-06-10T03:59:25;11.82;;;8.30;;
57828;SDS011;43657;52.698;6.314;2023-06-10T04:01:50;9.98;;;8.57;;
57828;SDS011;43657;52.698;6.314;2023-06-10T04:04:16;10.23;;;8.15;;
57828;SDS011;43657;52.698;6.314;2023-06-10T04:06:42;10.82;;;8.35;;
57828;SDS011;43657;52.698;6.314;2023-06-10T04:09:09;8.80;;;7.60;;
57828;SDS011;43657;52.698;6.314;2023-06-10T04:11:35;10.93;;;7.32;;
57828;SDS011;43657;52.698;6.314;2023-06-10T04:14:01;11.57;;;8.60;;
57828;SDS011;43657;52.698;6.314;2023-06-10T04:16:27;11.43;;;8.18;;
57828;SDS011;43657;52.698;6.314;2023-06-10T04:18:52;10.88;;;7.93;;
57828;SDS011;43657;52.698;6.314;2023-06-10T04:21:18;12.63;;;8.38;;
57828;SDS011;43657;52.698;6.314;2023-06-10T04:23:44;10.23;;;8.00;;
57828;SDS011;43657;52.698;6.314;2023-06-10T04:26:09;10.85;;;7.32;;
57828;SDS011;43657;52.698;6.314;2023-06-10T04:28:37;8.80;;;7.50;;
57828;SDS011;43657;52.698;6.314;2023-06-10T04:31:03;9.65;;;7.53;;
57828;SDS011;43657;52.698;6.314;2023-06-10T04:33:29;9.77;;;7.38;;
57828;SDS011;43657;52.698;6.314;2023-06-10T04:35:55;9.05;;;7.57;;
57828;SDS011;43657;52.698;6.314;2023-06-10T04:38:21;11.43;;;7.40;;
57828;SDS011;43657;52.698;6.314;2023-06-10T04:40:47;9.50;;;7.10;;
57828;SDS011;43657;52.698;6.314;2023-06-10T04:43:13;9.32;;;7.20;;
57828;SDS011;43657;52.698;6.314;2023-06-10T04:45:38;11.98;;;7.00;;
57828;SDS011;43657;52.698;6.314;2023-06-10T04:48:04;10.32;;;7.22;;
57828;SDS011;43657;52.698;6.314;2023-06-10T04:50:30;10.07;;;7.43;;
57828;SDS011;43657;52.698;6.314;2023-06-10T04:52:58;9.07;;;6.82;;
57828;SDS011;43657;52.698;6.314;2023-06-10T04:55:23;8.02;;;6.28;;
57828;SDS011;43657;52.698;6.314;2023-06-10T04:57:49;9.25;;;6.45;;
57828;SDS011;43657;52.698;6.314;2023-06-10T05:00:15;9.85;;;6.55;;
57828;SDS011;43657;52.698;6.314;2023-06-10T05:02:41;8.30;;;6.28;;
57828;SDS011;43657;52.698;6.314;2023-06-10T05:05:07;7.95;;;6.22;;
57828;SDS011;43657;52.698;6.314;2023-06-10T05:07:32;9.77;;;6.75;;
57828;SDS011;43657;52.698;6.314;2023-06-10T05:09:58;9.73;;;6.38;;
57828;SDS011;43657;52.698;6.314;2023-06-10T05:12:24;8.85;;;7.00;;
57828;SDS011;43657;52.698;6.314;2023-06-10T05:14:49;8.95;;;6.95;;
57828;SDS011;43657;52.698;6.314;2023-06-10T05:17:15;7.55;;;6.07;;
57828;SDS011;43657;52.698;6.314;2023-06-10T05:19:40;8.43;;;6.57;;
57828;SDS011;43657;52.698;6.314;2023-06-10T05:22:08;17.05;;;10.98;;
57828;SDS011;43657;52.698;6.314;2023-06-10T05:24:34;12.68;;;8.90;;
57828;SDS011;43657;52.698;6.314;2023-06-10T05:26:59;9.35;;;7.38;;
57828;SDS011;43657;52.698;6.314;2023-06-10T05:29:25;9.35;;;6.65;;
57828;SDS011;43657;52.698;6.314;2023-06-10T05:31:51;8.98;;;5.95;;
57828;SDS011;43657;52.698;6.314;2023-06-10T05:34:16;8.55;;;6.05;;
57828;SDS011;43657;52.698;6.314;2023-06-10T05:36:43;11.77;;;6.90;;
57828;SDS011;43657;52.698;6.314;2023-06-10T05:39:09;8.98;;;6.28;;
57828;SDS011;43657;52.698;6.314;2023-06-10T05:41:35;10.48;;;6.60;;
57828;SDS011;43657;52.698;6.314;2023-06-10T05:44:01;9.80;;;7.10;;
57828;SDS011;43657;52.698;6.314;2023-06-10T05:46:26;10.13;;;6.70;;
57828;SDS011;43657;52.698;6.314;2023-06-10T05:48:52;11.82;;;8.60;;
57828;SDS011;43657;52.698;6.314;2023-06-10T05:51:17;9.98;;;7.97;;
57828;SDS011;43657;52.698;6.314;2023-06-10T05:53:43;10.63;;;7.45;;
57828;SDS011;43657;52.698;6.314;2023-06-10T05:56:11;10.07;;;6.55;;
57828;SDS011;43657;52.698;6.314;2023-06-10T05:58:37;8.48;;;6.15;;
57828;SDS011;43657;52.698;6.314;2023-06-10T06:01:03;9.48;;;6.45;;
57828;SDS011;43657;52.698;6.314;2023-06-10T06:03:28;9.48;;;6.13;;
57828;SDS011;43657;52.698;6.314;2023-06-10T06:05:54;10.32;;;6.68;;
57828;SDS011;43657;52.698;6.314;2023-06-10T06:08:20;8.23;;;6.43;;
57828;SDS011;43657;52.698;6.314;2023-06-10T06:10:45;8.95;;;6.68;;
57828;SDS011;43657;52.698;6.314;2023-06-10T06:13:12;8.65;;;6.53;;
57828;SDS011;43657;52.698;6.314;2023-06-10T06:15:38;9.63;;;6.97;;
57828;SDS011;43657;52.698;6.314;2023-06-10T06:18:03;9.35;;;6.75;;
57828;SDS011;43657;52.698;6.314;2023-06-10T06:20:29;8.77;;;6.07;;
57828;SDS011;43657;52.698;6.314;2023-06-10T06:22:55;9.65;;;7.05;;
57828;SDS011;43657;52.698;6.314;2023-06-10T06:25:20;8.40;;;6.50;;
57828;SDS011;43657;52.698;6.314;2023-06-10T06:27:46;10.10;;;6.20;;
57828;SDS011;43657;52.698;6.314;2023-06-10T06:30:11;8.55;;;5.97;;
57828;SDS011;43657;52.698;6.314;2023-06-10T06:32:37;9.02;;;6.82;;
57828;SDS011;43657;52.698;6.314;2023-06-10T06:35:03;9.55;;;6.22;;
57828;SDS011;43657;52.698;6.314;2023-06-10T06:37:30;8.18;;;6.90;;
57828;SDS011;43657;52.698;6.314;2023-06-10T06:39:57;10.25;;;6.72;;
57828;SDS011;43657;52.698;6.314;2023-06-10T06:42:23;9.98;;;6.38;;
57828;SDS011;43657;52.698;6.314;2023-06-10T06:44:48;9.98;;;6.05;;
57828;SDS011;43657;52.698;6.314;2023-06-10T06:47:14;8.50;;;5.82;;
57828;SDS011;43657;52.698;6.314;2023-06-10T06:49:39;8.80;;;5.85;;
57828;SDS011;43657;52.698;6.314;2023-06-10T06:52:05;8.25;;;6.18;;
57828;SDS011;43657;52.698;6.314;2023-06-10T06:54:31;9.43;;;6.32;;
57828;SDS011;43657;52.698;6.314;2023-06-10T06:56:57;10.02;;;6.22;;
57828;SDS011;43657;52.698;6.314;2023-06-10T06:59:22;8.43;;;6.13;;
57828;SDS011;43657;52.698;6.314;2023-06-10T07:01:48;8.98;;;6.32;;
57828;SDS011;43657;52.698;6.314;2023-06-10T07:04:14;9.80;;;5.72;;
57828;SDS011;43657;52.698;6.314;2023-06-10T07:06:40;10.35;;;5.85;;
57828;SDS011;43657;52.698;6.314;2023-06-10T07:09:07;9.13;;;6.15;;
57828;SDS011;43657;52.698;6.314;2023-06-10T07:11:33;11.05;;;6.15;;
57828;SDS011;43657;52.698;6.314;2023-06-10T07:13:59;12.00;;;6.30;;
57828;SDS011;43657;52.698;6.314;2023-06-10T07:16:24;8.77;;;5.80;;
57828;SDS011;43657;52.698;6.314;2023-06-10T07:18:50;9.70;;;6.07;;
57828;SDS011;43657;52.698;6.314;2023-06-10T07:21:17;7.25;;;5.70;;
57828;SDS011;43657;52.698;6.314;2023-06-10T07:23:42;8.30;;;6.00;;
57828;SDS011;43657;52.698;6.314;2023-06-10T07:26:08;10.10;;;6.10;;
57828;SDS011;43657;52.698;6.314;2023-06-10T07:28:36;9.77;;;6.03;;
57828;SDS011;43657;52.698;6.314;2023-06-10T07:31:02;9.35;;;5.72;;
57828;SDS011;43657;52.698;6.314;2023-06-10T07:33:28;8.93;;;5.93;;
57828;SDS011;43657;52.698;6.314;2023-06-10T07:35:54;9.98;;;6.07;;
57828;SDS011;43657;52.698;6.314;2023-06-10T07:38:20;8.77;;;5.43;;
57828;SDS011;43657;52.698;6.314;2023-06-10T07:40:45;9.70;;;5.55;;
57828;SDS011;43657;52.698;6.314;2023-06-10T07:43:11;9.68;;;5.18;;
57828;SDS011;43657;52.698;6.314;2023-06-10T07:45:39;12.00;;;5.82;;
57828;SDS011;43657;52.698;6.314;2023-06-10T07:48:04;10.15;;;5.90;;
57828;SDS011;43657;52.698;6.314;2023-06-10T07:50:30;7.93;;;5.43;;
57828;SDS011;43657;52.698;6.314;2023-06-10T07:52:56;8.65;;;5.82;;
57828;SDS011;43657;52.698;6.314;2023-06-10T07:55:21;8.32;;;5.90;;
57828;SDS011;43657;52.698;6.314;2023-06-10T07:57:47;8.07;;;5.35;;
57828;SDS011;43657;52.698;6.314;2023-06-10T08:00:14;8.65;;;5.30;;
57828;SDS011;43657;52.698;6.314;2023-06-10T08:02:40;6.40;;;4.50;;
57828;SDS011;43657;52.698;6.314;2023-06-10T08:05:06;8.52;;;5.03;;
57828;SDS011;43657;52.698;6.314;2023-06-10T08:07:31;8.90;;;5.15;;
57828;SDS011;43657;52.698;6.314;2023-06-10T08:09:57;7.85;;;4.90;;
57828;SDS011;43657;52.698;6.314;2023-06-10T08:12:23;9.18;;;5.15;;
57828;SDS011;43657;52.698;6.314;2023-06-10T08:14:48;6.03;;;4.45;;
57828;SDS011;43657;52.698;6.314;2023-06-10T08:17:14;8.38;;;5.32;;
57828;SDS011;43657;52.698;6.314;2023-06-10T08:19:39;8.35;;;4.95;;
57828;SDS011;43657;52.698;6.314;2023-06-10T08:22:05;6.65;;;4.47;;
57828;SDS011;43657;52.698;6.314;2023-06-10T08:24:31;7.50;;;4.80;;
57828;SDS011;43657;52.698;6.314;2023-06-10T08:26:56;8.68;;;4.70;;
57828;SDS011;43657;52.698;6.314;2023-06-10T08:29:22;6.32;;;4.38;;
57828;SDS011;43657;52.698;6.314;2023-06-10T08:31:48;7.80;;;4.72;;
57828;SDS011;43657;52.698;6.314;2023-06-10T08:34:14;4.53;;;4.00;;
57828;SDS011;43657;52.698;6.314;2023-06-10T08:36:40;8.73;;;4.80;;
57828;SDS011;43657;52.698;6.314;2023-06-10T08:39:05;7.68;;;4.13;;
57828;SDS011;43657;52.698;6.314;2023-06-10T08:41:34;6.97;;;4.50;;
57828;SDS011;43657;52.698;6.314;2023-06-10T08:44:12;7.60;;;5.47;;
57828;SDS011;43657;52.698;6.314;2023-06-10T08:46:45;6.65;;;5.00;;
57828;SDS011;43657;52.698;6.314;2023-06-10T08:49:11;7.55;;;4.80;;
57828;SDS011;43657;52.698;6.314;2023-06-10T08:51:42;5.50;;;4.40;;
57828;SDS011;43657;52.698;6.314;2023-06-10T08:54:13;7.50;;;4.85;;
57828;SDS011;43657;52.698;6.314;2023-06-10T08:56:47;6.85;;;4.45;;
57828;SDS011;43657;52.698;6.314;2023-06-10T08:59:16;6.55;;;4.43;;
57828;SDS011;43657;52.698;6.314;2023-06-10T09:01:42;7.47;;;4.90;;
57828;SDS011;43657;52.698;6.314;2023-06-10T09:04:09;5.53;;;4.05;;
57828;SDS011;43657;52.698;6.314;2023-06-10T09:06:35;7.80;;;4.68;;
57828;SDS011;43657;52.698;6.314;2023-06-10T09:09:03;7.40;;;4.50;;
57828;SDS011;43657;52.698;6.314;2023-06-10T09:11:30;6.13;;;4.55;;
57828;SDS011;43657;52.698;6.314;2023-06-10T09:13:56;6.68;;;4.38;;
57828;SDS011;43657;52.698;6.314;2023-06-10T09:16:22;8.90;;;4.63;;
57828;SDS011;43657;52.698;6.314;2023-06-10T09:18:49;6.85;;;4.57;;
57828;SDS011;43657;52.698;6.314;2023-06-10T09:21:20;4.75;;;4.20;;
57828;SDS011;43657;52.698;6.314;2023-06-10T09:23:47;6.55;;;4.30;;
57828;SDS011;43657;52.698;6.314;2023-06-10T09:26:13;6.22;;;4.40;;
57828;SDS011;43657;52.698;6.314;2023-06-10T09:28:39;5.68;;;4.65;;
57828;SDS011;43657;52.698;6.314;2023-06-10T09:31:07;8.32;;;4.78;;
57828;SDS011;43657;52.698;6.314;2023-06-10T09:33:36;8.38;;;4.43;;
57828;SDS011;43657;52.698;6.314;2023-06-10T09:36:03;5.90;;;4.70;;
57828;SDS011;43657;52.698;6.314;2023-06-10T09:38:30;8.70;;;4.88;;
57828;SDS011;43657;52.698;6.314;2023-06-10T09:40:57;6.85;;;4.50;;
57828;SDS011;43657;52.698;6.314;2023-06-10T09:43:23;8.73;;;4.78;;
57828;SDS011;43657;52.698;6.314;2023-06-10T09:46:02;7.60;;;5.13;;
57828;SDS011;43657;52.698;6.314;2023-06-10T09:48:28;6.10;;;5.35;;
57828;SDS011;43657;52.698;6.314;2023-06-10T09:50:54;6.78;;;5.45;;
57828;SDS011;43657;52.698;6.314;2023-06-10T09:53:20;5.88;;;4.70;;
57828;SDS011;43657;52.698;6.314;2023-06-10T09:55:46;7.25;;;5.35;;
57828;SDS011;43657;52.698;6.314;2023-06-10T09:58:11;5.97;;;4.80;;
57828;SDS011;43657;52.698;6.314;2023-06-10T10:00:37;8.27;;;5.30;;
57828;SDS011;43657;52.698;6.314;2023-06-10T10:03:02;8.05;;;4.90;;
57828;SDS011;43657;52.698;6.314;2023-06-10T10:05:28;7.10;;;5.20;;
57828;SDS011;43657;52.698;6.314;2023-06-10T10:07:54;7.45;;;4.97;;
57828;SDS011;43657;52.698;6.314;2023-06-10T10:10:21;6.38;;;5.28;;
57828;SDS011;43657;52.698;6.314;2023-06-10T10:12:48;5.78;;;4.88;;
57828;SDS011;43657;52.698;6.314;2023-06-10T10:15:20;6.50;;;4.97;;
57828;SDS011;43657;52.698;6.314;2023-06-10T10:18:06;6.32;;;4.90;;
57828;SDS011;43657;52.698;6.314;2023-06-10T10:20:35;5.85;;;4.45;;
57828;SDS011;43657;52.698;6.314;2023-06-10T10:23:08;7.45;;;5.10;;
57828;SDS011;43657;52.698;6.314;2023-06-10T10:25:37;5.85;;;5.07;;
57828;SDS011;43657;52.698;6.314;2023-06-10T10:28:09;8.65;;;5.18;;
57828;SDS011;43657;52.698;6.314;2023-06-10T10:30:46;7.82;;;5.10;;
57828;SDS011;43657;52.698;6.314;2023-06-10T10:33:19;8.65;;;5.45;;
57828;SDS011;43657;52.698;6.314;2023-06-10T10:35:48;5.82;;;4.85;;
57828;SDS011;43657;52.698;6.314;2023-06-10T10:38:15;5.53;;;4.93;;
57828;SDS011;43657;52.698;6.314;2023-06-10T10:40:41;5.70;;;4.82;;
57828;SDS011;43657;52.698;6.314;2023-06-10T10:43:08;5.82;;;4.97;;
57828;SDS011;43657;52.698;6.314;2023-06-10T10:45:35;6.40;;;4.70;;
57828;SDS011;43657;52.698;6.314;2023-06-10T10:48:05;6.28;;;5.05;;
57828;SDS011;43657;52.698;6.314;2023-06-10T10:50:35;7.45;;;4.60;;
57828;SDS011;43657;52.698;6.314;2023-06-10T10:53:01;5.20;;;4.68;;
57828;SDS011;43657;52.698;6.314;2023-06-10T10:55:28;7.65;;;5.18;;
57828;SDS011;43657;52.698;6.314;2023-06-10T10:58:03;6.78;;;4.97;;
57828;SDS011;43657;52.698;6.314;2023-06-10T11:00:33;5.45;;;4.68;;
57828;SDS011;43657;52.698;6.314;2023-06-10T11:05:47;6.75;;;4.40;;
57828;SDS011;43657;52.698;6.314;2023-06-10T11:10:57;5.40;;;4.38;;
57828;SDS011;43657;52.698;6.314;2023-06-10T11:13:23;5.28;;;4.40;;
57828;SDS011;43657;52.698;6.314;2023-06-10T11:15:51;4.97;;;4.20;;
57828;SDS011;43657;52.698;6.314;2023-06-10T11:18:25;5.20;;;4.55;;
57828;SDS011;43657;52.698;6.314;2023-06-10T11:20:55;6.32;;;4.70;;
57828;SDS011;43657;52.698;6.314;2023-06-10T11:31:26;4.47;;;4.03;;
57828;SDS011;43657;52.698;6.314;2023-06-10T11:34:03;4.60;;;4.10;;
57828;SDS011;43657;52.698;6.314;2023-06-10T11:36:31;6.45;;;4.07;;
57828;SDS011;43657;52.698;6.314;2023-06-10T11:39:10;6.07;;;3.58;;
57828;SDS011;43657;52.698;6.314;2023-06-10T11:41:37;4.85;;;3.90;;
57828;SDS011;43657;52.698;6.314;2023-06-10T11:44:04;6.32;;;4.05;;
57828;SDS011;43657;52.698;6.314;2023-06-10T11:46:34;5.10;;;4.07;;
57828;SDS011;43657;52.698;6.314;2023-06-10T11:49:01;5.07;;;3.70;;
57828;SDS011;43657;52.698;6.314;2023-06-10T11:51:28;6.90;;;3.95;;
57828;SDS011;43657;52.698;6.314;2023-06-10T11:53:57;4.15;;;3.40;;
57828;SDS011;43657;52.698;6.314;2023-06-10T11:56:23;5.50;;;3.45;;
57828;SDS011;43657;52.698;6.314;2023-06-10T11:58:54;6.43;;;3.78;;
57828;SDS011;43657;52.698;6.314;2023-06-10T12:01:22;5.93;;;4.00;;
57828;SDS011;43657;52.698;6.314;2023-06-10T12:03:56;5.07;;;4.07;;
57828;SDS011;43657;52.698;6.314;2023-06-10T12:06:22;4.65;;;3.75;;
57828;SDS011;43657;52.698;6.314;2023-06-10T12:08:48;4.47;;;3.72;;
57828;SDS011;43657;52.698;6.314;2023-06-10T12:11:14;5.03;;;3.55;;
57828;SDS011;43657;52.698;6.314;2023-06-10T12:13:45;5.72;;;3.85;;
57828;SDS011;43657;52.698;6.314;2023-06-10T12:16:14;5.45;;;3.55;;
57828;SDS011;43657;52.698;6.314;2023-06-10T12:18:42;4.72;;;3.38;;
57828;SDS011;43657;52.698;6.314;2023-06-10T12:21:19;5.63;;;3.78;;
57828;SDS011;43657;52.698;6.314;2023-06-10T12:24:00;4.30;;;3.70;;
57828;SDS011;43657;52.698;6.314;2023-06-10T12:26:37;5.80;;;3.55;;
57828;SDS011;43657;52.698;6.314;2023-06-10T12:29:20;4.30;;;3.60;;
57828;SDS011;43657;52.698;6.314;2023-06-10T12:34:37;4.85;;;3.25;;
57828;SDS011;43657;52.698;6.314;2023-06-10T12:37:10;6.03;;;3.47;;
57828;SDS011;43657;52.698;6.314;2023-06-10T12:39:38;3.80;;;3.40;;
57828;SDS011;43657;52.698;6.314;2023-06-10T12:42:05;5.63;;;3.05;;
57828;SDS011;43657;52.698;6.314;2023-06-10T12:44:35;3.85;;;3.13;;
57828;SDS011;43657;52.698;6.314;2023-06-10T12:47:07;4.53;;;3.05;;
57828;SDS011;43657;52.698;6.314;2023-06-10T12:49:34;4.82;;;3.40;;
57828;SDS011;43657;52.698;6.314;2023-06-10T12:52:01;3.25;;;2.92;;
57828;SDS011;43657;52.698;6.314;2023-06-10T12:54:26;3.83;;;3.33;;
57828;SDS011;43657;52.698;6.314;2023-06-10T12:56:52;4.20;;;3.10;;
57828;SDS011;43657;52.698;6.314;2023-06-10T12:59:18;3.10;;;2.80;;
57828;SDS011;43657;52.698;6.314;2023-06-10T13:01:44;3.70;;;3.03;;
57828;SDS011;43657;52.698;6.314;2023-06-10T13:04:16;5.18;;;2.97;;
57828;SDS011;43657;52.698;6.314;2023-06-10T13:06:42;4.03;;;2.92;;
57828;SDS011;43657;52.698;6.314;2023-06-10T13:09:07;4.30;;;3.20;;
57828;SDS011;43657;52.698;6.314;2023-06-10T13:11:33;4.07;;;2.97;;
57828;SDS011;43657;52.698;6.314;2023-06-10T13:14:00;3.80;;;2.80;;
57828;SDS011;43657;52.698;6.314;2023-06-10T13:16:27;4.57;;;2.88;;
57828;SDS011;43657;52.698;6.314;2023-06-10T13:18:53;5.25;;;3.22;;
57828;SDS011;43657;52.698;6.314;2023-06-10T13:21:19;3.20;;;2.90;;
57828;SDS011;43657;52.698;6.314;2023-06-10T13:23:45;3.85;;;3.00;;
57828;SDS011;43657;52.698;6.314;2023-06-10T13:26:12;4.35;;;3.08;;
57828;SDS011;43657;52.698;6.314;2023-06-10T13:28:39;3.83;;;2.90;;
57828;SDS011;43657;52.698;6.314;2023-06-10T13:31:04;7.03;;;2.75;;
57828;SDS011;43657;52.698;6.314;2023-06-10T13:33:30;7.53;;;2.95;;
57828;SDS011;43657;52.698;6.314;2023-06-10T13:35:55;4.60;;;2.90;;
57828;SDS011;43657;52.698;6.314;2023-06-10T13:38:21;5.82;;;3.00;;
57828;SDS011;43657;52.698;6.314;2023-06-10T13:40:46;4.63;;;3.00;;
57828;SDS011;43657;52.698;6.314;2023-06-10T13:43:12;3.50;;;2.30;;
57828;SDS011;43657;52.698;6.314;2023-06-10T13:45:38;2.95;;;2.60;;
57828;SDS011;43657;52.698;6.314;2023-06-10T13:48:04;4.57;;;2.70;;
57828;SDS011;43657;52.698;6.314;2023-06-10T13:50:30;5.90;;;3.03;;
57828;SDS011;43657;52.698;6.314;2023-06-10T13:52:56;4.32;;;2.63;;
57828;SDS011;43657;52.698;6.314;2023-06-10T13:55:22;2.90;;;2.60;;
57828;SDS011;43657;52.698;6.314;2023-06-10T13:57:49;4.13;;;2.97;;
57828;SDS011;43657;52.698;6.314;2023-06-10T14:00:15;3.50;;;2.90;;
57828;SDS011;43657;52.698;6.314;2023-06-10T14:02:41;5.15;;;4.38;;
57828;SDS011;43657;52.698;6.314;2023-06-10T14:05:07;3.38;;;2.55;;
57828;SDS011;43657;52.698;6.314;2023-06-10T14:07:33;4.97;;;2.95;;
57828;SDS011;43657;52.698;6.314;2023-06-10T14:09:59;4.07;;;2.85;;
57828;SDS011;43657;52.698;6.314;2023-06-10T14:12:25;3.40;;;2.60;;
57828;SDS011;43657;52.698;6.314;2023-06-10T14:14:50;5.05;;;3.25;;
57828;SDS011;43657;52.698;6.314;2023-06-10T14:17:16;3.90;;;3.10;;
57828;SDS011;43657;52.698;6.314;2023-06-10T14:19:48;3.35;;;2.70;;
57828;SDS011;43657;52.698;6.314;2023-06-10T14:22:37;3.70;;;2.65;;
57828;SDS011;43657;52.698;6.314;2023-06-10T14:25:07;5.10;;;2.70;;
57828;SDS011;43657;52.698;6.314;2023-06-10T14:27:36;3.05;;;2.50;;
57828;SDS011;43657;52.698;6.314;2023-06-10T14:30:02;3.47;;;3.10;;
57828;SDS011;43657;52.698;6.314;2023-06-10T14:32:34;4.20;;;3.08;;
57828;SDS011;43657;52.698;6.314;2023-06-10T14:35:02;3.83;;;2.70;;
57828;SDS011;43657;52.698;6.314;2023-06-10T14:37:35;4.10;;;2.85;;
57828;SDS011;43657;52.698;6.314;2023-06-10T14:40:10;2.83;;;2.53;;
57828;SDS011;43657;52.698;6.314;2023-06-10T14:42:50;6.15;;;2.80;;
57828;SDS011;43657;52.698;6.314;2023-06-10T14:45:18;4.35;;;2.80;;
57828;SDS011;43657;52.698;6.314;2023-06-10T14:47:54;6.30;;;3.10;;
57828;SDS011;43657;52.698;6.314;2023-06-10T14:50:23;3.70;;;3.20;;
57828;SDS011;43657;52.698;6.314;2023-06-10T14:52:57;3.45;;;2.80;;
57828;SDS011;43657;52.698;6.314;2023-06-10T14:55:26;5.95;;;2.53;;
57828;SDS011;43657;52.698;6.314;2023-06-10T14:57:59;6.05;;;2.80;;
57828;SDS011;43657;52.698;6.314;2023-06-10T15:00:25;3.95;;;3.17;;
57828;SDS011;43657;52.698;6.314;2023-06-10T15:02:59;3.22;;;2.90;;
57828;SDS011;43657;52.698;6.314;2023-06-10T15:05:25;4.80;;;3.40;;